sensor_id;sensor_type;location;lat;lon;timestamp;pressure;altitude;pressure_sealevel;temperature;humidity
50310;BME280;36207;51.850;21.698;2023-04-16T00:01:57;99767.19;;;9.60;76.24
50310;BME280;36207;51.850;21.698;2023-04-16T00:04:23;99767.76;;;9.59;76.07
50310;BME280;36207;51.850;21.698;2023-04-16T00:06:49;99770.02;;;9.56;76.23
50310;BME280;36207;51.850;21.698;2023-04-16T00:09:15;99769.73;;;9.56;76.18
50310;BME280;36207;51.850;21.698;2023-04-16T00:11:43;99773.79;;;9.56;76.33
50310;BME280;36207;51.850;21.698;2023-04-16T00:14:10;99770.06;;;9.56;76.25
50310;BME280;36207;51.850;21.698;2023-04-16T00:16:36;99771.20;;;9.54;76.21
50310;BME280;36207;51.850;21.698;2023-04-16T00:19:03;99768.58;;;9.53;76.15
50310;BME280;36207;51.850;21.698;2023-04-16T00:21:29;99765.75;;;9.53;76.21
50310;BME280;36207;51.850;21.698;2023-04-16T00:23:58;99759.96;;;9.54;76.29
50310;BME280;36207;51.850;21.698;2023-04-16T00:26:24;99757.61;;;9.56;76.34
50310;BME280;36207;51.850;21.698;2023-04-16T00:28:50;99757.42;;;9.56;76.34
50310;BME280;36207;51.850;21.698;2023-04-16T00:31:16;99754.60;;;9.56;76.43
50310;BME280;36207;51.850;21.698;2023-04-16T00:33:42;99751.73;;;9.56;76.32
50310;BME280;36207;51.850;21.698;2023-04-16T00:36:08;99752.54;;;9.55;76.39
50310;BME280;36207;51.850;21.698;2023-04-16T00:38:34;99756.91;;;9.57;76.53
50310;BME280;36207;51.850;21.698;2023-04-16T00:41:00;99756.83;;;9.58;76.58
50310;BME280;36207;51.850;21.698;2023-04-16T00:43:26;99757.59;;;9.57;76.56
50310;BME280;36207;51.850;21.698;2023-04-16T00:45:55;99755.36;;;9.55;76.37
50310;BME280;36207;51.850;21.698;2023-04-16T00:48:22;99757.76;;;9.55;76.27
50310;BME280;36207;51.850;21.698;2023-04-16T00:50:48;99753.77;;;9.54;76.36
50310;BME280;36207;51.850;21.698;2023-04-16T00:53:14;99755.96;;;9.55;76.39
50310;BME280;36207;51.850;21.698;2023-04-16T00:55:40;99759.95;;;9.55;76.47
50310;BME280;36207;51.850;21.698;2023-04-16T00:58:06;99759.45;;;9.55;76.41
50310;BME280;36207;51.850;21.698;2023-04-16T01:00:31;99755.73;;;9.53;76.45
50310;BME280;36207;51.850;21.698;2023-04-16T01:02:58;99755.68;;;9.53;76.36
50310;BME280;36207;51.850;21.698;2023-04-16T01:05:25;99757.52;;;9.52;76.38
50310;BME280;36207;51.850;21.698;2023-04-16T01:07:51;99758.89;;;9.51;76.41
50310;BME280;36207;51.850;21.698;2023-04-16T01:10:17;99759.80;;;9.48;76.46
50310;BME280;36207;51.850;21.698;2023-04-16T01:12:42;99763.34;;;9.45;76.45
50310;BME280;36207;51.850;21.698;2023-04-16T01:15:09;99765.12;;;9.42;76.38
50310;BME280;36207;51.850;21.698;2023-04-16T01:17:37;99760.84;;;9.38;76.47
50310;BME280;36207;51.850;21.698;2023-04-16T01:20:03;99763.61;;;9.37;76.42
50310;BME280;36207;51.850;21.698;2023-04-16T01:22:29;99764.80;;;9.37;76.50
50310;BME280;36207;51.850;21.698;2023-04-16T01:24:55;99765.49;;;9.35;76.69
50310;BME280;36207;51.850;21.698;2023-04-16T01:27:24;99766.44;;;9.30;76.64
50310;BME280;36207;51.850;21.698;2023-04-16T01:29:50;99771.23;;;9.24;76.61
50310;BME280;36207;51.850;21.698;2023-04-16T01:32:16;99772.39;;;9.22;76.53
50310;BME280;36207;51.850;21.698;2023-04-16T01:34:42;99774.63;;;9.21;76.70
50310;BME280;36207;51.850;21.698;2023-04-16T01:37:08;99781.42;;;9.21;76.64
50310;BME280;36207;51.850;21.698;2023-04-16T01:39:34;99783.27;;;9.20;76.64
50310;BME280;36207;51.850;21.698;2023-04-16T01:42:03;99783.67;;;9.21;76.78
50310;BME280;36207;51.850;21.698;2023-04-16T01:44:28;99782.69;;;9.19;76.60
50310;BME280;36207;51.850;21.698;2023-04-16T01:46:55;99781.64;;;9.17;76.75
50310;BME280;36207;51.850;21.698;2023-04-16T01:49:21;99783.19;;;9.16;76.85
50310;BME280;36207;51.850;21.698;2023-04-16T01:51:47;99784.15;;;9.17;76.76
50310;BME280;36207;51.850;21.698;2023-04-16T01:54:13;99783.27;;;9.18;76.93
50310;BME280;36207;51.850;21.698;2023-04-16T01:56:39;99784.12;;;9.18;76.78
50310;BME280;36207;51.850;21.698;2023-04-16T01:59:04;99789.72;;;9.17;76.99
50310;BME280;36207;51.850;21.698;2023-04-16T02:01:30;99790.67;;;9.17;76.87
50310;BME280;36207;51.850;21.698;2023-04-16T02:03:56;99792.19;;;9.20;77.02
50310;BME280;36207;51.850;21.698;2023-04-16T02:06:22;99786.70;;;9.23;77.08
50310;BME280;36207;51.850;21.698;2023-04-16T02:08:48;99786.84;;;9.26;76.93
50310;BME280;36207;51.850;21.698;2023-04-16T02:11:14;99793.48;;;9.25;76.85
50310;BME280;36207;51.850;21.698;2023-04-16T02:13:40;99794.67;;;9.24;76.91
50310;BME280;36207;51.850;21.698;2023-04-16T02:16:06;99794.73;;;9.25;76.88
50310;BME280;36207;51.850;21.698;2023-04-16T02:18:32;99797.88;;;9.26;77.06
50310;BME280;36207;51.850;21.698;2023-04-16T02:20:58;99800.52;;;9.23;77.06
50310;BME280;36207;51.850;21.698;2023-04-16T02:23:24;99803.92;;;9.21;76.94
50310;BME280;36207;51.850;21.698;2023-04-16T02:25:50;99802.49;;;9.19;76.97
50310;BME280;36207;51.850;21.698;2023-04-16T02:28:16;99802.20;;;9.19;76.93
50310;BME280;36207;51.850;21.698;2023-04-16T02:30:43;99803.21;;;9.20;77.05
50310;BME280;36207;51.850;21.698;2023-04-16T02:33:10;99805.24;;;9.19;76.98
50310;BME280;36207;51.850;21.698;2023-04-16T02:35:37;99810.06;;;9.20;76.93
50310;BME280;36207;51.850;21.698;2023-04-16T02:38:05;99811.49;;;9.20;76.94
50310;BME280;36207;51.850;21.698;2023-04-16T02:40:31;99810.02;;;9.20;77.15
50310;BME280;36207;51.850;21.698;2023-04-16T02:42:57;99811.60;;;9.19;76.99
50310;BME280;36207;51.850;21.698;2023-04-16T02:45:23;99808.00;;;9.19;77.09
50310;BME280;36207;51.850;21.698;2023-04-16T02:47:50;99808.92;;;9.21;77.15
50310;BME280;36207;51.850;21.698;2023-04-16T02:50:16;99807.01;;;9.19;77.06
50310;BME280;36207;51.850;21.698;2023-04-16T02:52:42;99807.75;;;9.17;77.07
50310;BME280;36207;51.850;21.698;2023-04-16T02:55:09;99809.33;;;9.16;77.02
50310;BME280;36207;51.850;21.698;2023-04-16T02:57:35;99812.52;;;9.17;77.08
50310;BME280;36207;51.850;21.698;2023-04-16T03:00:01;99808.97;;;9.19;77.07
50310;BME280;36207;51.850;21.698;2023-04-16T03:02:32;99808.92;;;9.19;77.06
50310;BME280;36207;51.850;21.698;2023-04-16T03:04:58;99808.90;;;9.19;77.10
50310;BME280;36207;51.850;21.698;2023-04-16T03:07:24;99809.52;;;9.20;77.17
50310;BME280;36207;51.850;21.698;2023-04-16T03:09:50;99811.48;;;9.23;77.20
50310;BME280;36207;51.850;21.698;2023-04-16T03:12:16;99809.33;;;9.27;77.10
50310;BME280;36207;51.850;21.698;2023-04-16T03:14:42;99808.34;;;9.26;77.12
50310;BME280;36207;51.850;21.698;2023-04-16T03:17:08;99812.17;;;9.26;77.14
50310;BME280;36207;51.850;21.698;2023-04-16T03:19:34;99814.63;;;9.27;77.02
50310;BME280;36207;51.850;21.698;2023-04-16T03:22:00;99818.96;;;9.24;77.13
50310;BME280;36207;51.850;21.698;2023-04-16T03:24:26;99816.54;;;9.23;77.07
50310;BME280;36207;51.850;21.698;2023-04-16T03:26:52;99815.30;;;9.24;77.07
50310;BME280;36207;51.850;21.698;2023-04-16T03:29:18;99816.14;;;9.27;77.25
50310;BME280;36207;51.850;21.698;2023-04-16T03:31:44;99813.88;;;9.28;77.34
50310;BME280;36207;51.850;21.698;2023-04-16T03:34:10;99820.90;;;9.31;77.12
50310;BME280;36207;51.850;21.698;2023-04-16T03:36:35;99818.77;;;9.31;77.09
50310;BME280;36207;51.850;21.698;2023-04-16T03:39:01;99817.63;;;9.32;77.24
50310;BME280;36207;51.850;21.698;2023-04-16T03:41:27;99820.45;;;9.33;77.21
50310;BME280;36207;51.850;21.698;2023-04-16T03:43:53;99822.14;;;9.34;77.28
50310;BME280;36207;51.850;21.698;2023-04-16T03:46:19;99818.11;;;9.32;77.19
50310;BME280;36207;51.850;21.698;2023-04-16T03:48:45;99821.18;;;9.31;77.25
50310;BME280;36207;51.850;21.698;2023-04-16T03:51:11;99824.58;;;9.33;77.27
50310;BME280;36207;51.850;21.698;2023-04-16T03:53:37;99829.74;;;9.33;77.26
50310;BME280;36207;51.850;21.698;2023-04-16T03:56:03;99834.67;;;9.33;77.24
50310;BME280;36207;51.850;21.698;2023-04-16T03:58:29;99838.11;;;9.36;77.30
50310;BME280;36207;51.850;21.698;2023-04-16T04:00:55;99844.83;;;9.36;77.20
50310;BME280;36207;51.850;21.698;2023-04-16T04:03:21;99847.40;;;9.37;77.26
50310;BME280;36207;51.850;21.698;2023-04-16T04:05:47;99849.47;;;9.37;77.12
50310;BME280;36207;51.850;21.698;2023-04-16T04:08:13;99854.22;;;9.37;77.18
50310;BME280;36207;51.850;21.698;2023-04-16T04:10:39;99857.09;;;9.37;77.15
50310;BME280;36207;51.850;21.698;2023-04-16T04:13:05;99862.51;;;9.40;77.28
50310;BME280;36207;51.850;21.698;2023-04-16T04:15:31;99863.77;;;9.43;77.33
50310;BME280;36207;51.850;21.698;2023-04-16T04:17:58;99871.65;;;9.44;77.31
50310;BME280;36207;51.850;21.698;2023-04-16T04:20:24;99872.05;;;9.44;77.22
50310;BME280;36207;51.850;21.698;2023-04-16T04:22:50;99874.18;;;9.45;77.27
50310;BME280;36207;51.850;21.698;2023-04-16T04:25:16;99873.98;;;9.45;77.17
50310;BME280;36207;51.850;21.698;2023-04-16T04:27:42;99879.17;;;9.47;77.22
50310;BME280;36207;51.850;21.698;2023-04-16T04:30:08;99877.34;;;9.49;77.26
50310;BME280;36207;51.850;21.698;2023-04-16T04:32:34;99880.94;;;9.50;77.29
50310;BME280;36207;51.850;21.698;2023-04-16T04:35:02;99879.55;;;9.50;77.30
50310;BME280;36207;51.850;21.698;2023-04-16T04:37:28;99880.27;;;9.51;77.34
50310;BME280;36207;51.850;21.698;2023-04-16T04:39:54;99883.54;;;9.52;77.35
50310;BME280;36207;51.850;21.698;2023-04-16T04:42:20;99883.22;;;9.55;77.40
50310;BME280;36207;51.850;21.698;2023-04-16T04:44:46;99885.58;;;9.60;77.46
50310;BME280;36207;51.850;21.698;2023-04-16T04:47:13;99888.70;;;9.64;77.46
50310;BME280;36207;51.850;21.698;2023-04-16T04:49:40;99890.48;;;9.66;77.43
50310;BME280;36207;51.850;21.698;2023-04-16T04:52:06;99894.86;;;9.68;77.40
50310;BME280;36207;51.850;21.698;2023-04-16T04:54:32;99895.23;;;9.69;77.33
50310;BME280;36207;51.850;21.698;2023-04-16T04:56:58;99895.27;;;9.72;77.49
50310;BME280;36207;51.850;21.698;2023-04-16T04:59:27;99897.68;;;9.76;77.34
50310;BME280;36207;51.850;21.698;2023-04-16T05:01:53;99899.83;;;9.79;77.49
50310;BME280;36207;51.850;21.698;2023-04-16T05:04:19;99902.52;;;9.80;77.30
50310;BME280;36207;51.850;21.698;2023-04-16T05:06:45;99906.89;;;9.81;77.34
50310;BME280;36207;51.850;21.698;2023-04-16T05:09:11;99910.39;;;9.80;77.22
50310;BME280;36207;51.850;21.698;2023-04-16T05:11:37;99909.90;;;9.79;77.29
50310;BME280;36207;51.850;21.698;2023-04-16T05:14:04;99908.09;;;9.81;77.32
50310;BME280;36207;51.850;21.698;2023-04-16T05:16:30;99909.61;;;9.83;77.35
50310;BME280;36207;51.850;21.698;2023-04-16T05:18:56;99908.72;;;9.87;77.35
50310;BME280;36207;51.850;21.698;2023-04-16T05:21:23;99911.46;;;9.89;77.45
50310;BME280;36207;51.850;21.698;2023-04-16T05:23:49;99908.21;;;9.90;77.37
50310;BME280;36207;51.850;21.698;2023-04-16T05:26:15;99905.17;;;9.88;77.21
50310;BME280;36207;51.850;21.698;2023-04-16T05:28:41;99902.56;;;9.89;77.30
50310;BME280;36207;51.850;21.698;2023-04-16T05:31:06;99898.38;;;9.91;77.35
50310;BME280;36207;51.850;21.698;2023-04-16T05:33:32;99899.75;;;9.95;77.25
50310;BME280;36207;51.850;21.698;2023-04-16T05:35:58;99903.73;;;9.97;77.24
50310;BME280;36207;51.850;21.698;2023-04-16T05:38:24;99901.33;;;9.98;77.31
50310;BME280;36207;51.850;21.698;2023-04-16T05:40:50;99905.62;;;9.99;77.23
50310;BME280;36207;51.850;21.698;2023-04-16T05:43:16;99906.80;;;10.01;77.34
50310;BME280;36207;51.850;21.698;2023-04-16T05:45:42;99904.31;;;10.06;77.37
50310;BME280;36207;51.850;21.698;2023-04-16T05:48:08;99902.30;;;10.11;77.41
50310;BME280;36207;51.850;21.698;2023-04-16T05:50:35;99900.90;;;10.15;77.40
50310;BME280;36207;51.850;21.698;2023-04-16T05:53:03;99906.38;;;10.19;77.29
50310;BME280;36207;51.850;21.698;2023-04-16T05:55:30;99908.87;;;10.20;77.30
50310;BME280;36207;51.850;21.698;2023-04-16T05:57:56;99918.98;;;10.20;77.03
50310;BME280;36207;51.850;21.698;2023-04-16T06:00:22;99919.98;;;10.17;76.78
50310;BME280;36207;51.850;21.698;2023-04-16T06:02:49;99924.06;;;10.18;76.82
50310;BME280;36207;51.850;21.698;2023-04-16T06:05:15;99926.41;;;10.19;76.85
50310;BME280;36207;51.850;21.698;2023-04-16T06:07:41;99930.66;;;10.20;76.61
50310;BME280;36207;51.850;21.698;2023-04-16T06:10:07;99930.83;;;10.18;76.48
50310;BME280;36207;51.850;21.698;2023-04-16T06:12:33;99934.36;;;10.15;75.97
50310;BME280;36207;51.850;21.698;2023-04-16T06:15:00;99937.39;;;10.06;75.78
50310;BME280;36207;51.850;21.698;2023-04-16T06:17:26;99943.79;;;10.03;76.06
50310;BME280;36207;51.850;21.698;2023-04-16T06:19:52;99940.77;;;10.02;75.86
50310;BME280;36207;51.850;21.698;2023-04-16T06:22:17;99947.83;;;9.96;75.74
50310;BME280;36207;51.850;21.698;2023-04-16T06:24:45;99946.42;;;9.93;76.10
50310;BME280;36207;51.850;21.698;2023-04-16T06:27:11;99949.91;;;9.95;76.18
50310;BME280;36207;51.850;21.698;2023-04-16T06:29:36;99950.98;;;9.97;76.15
50310;BME280;36207;51.850;21.698;2023-04-16T06:32:03;99949.27;;;9.97;76.31
50310;BME280;36207;51.850;21.698;2023-04-16T06:34:29;99952.84;;;10.02;76.37
50310;BME280;36207;51.850;21.698;2023-04-16T06:36:58;99950.50;;;10.05;76.21
50310;BME280;36207;51.850;21.698;2023-04-16T06:39:24;99949.34;;;10.09;76.35
50310;BME280;36207;51.850;21.698;2023-04-16T06:41:50;99950.70;;;10.11;76.24
50310;BME280;36207;51.850;21.698;2023-04-16T06:44:16;99954.52;;;10.13;76.26
50310;BME280;36207;51.850;21.698;2023-04-16T06:46:42;99955.94;;;10.15;76.21
50310;BME280;36207;51.850;21.698;2023-04-16T06:49:07;99955.95;;;10.15;76.07
50310;BME280;36207;51.850;21.698;2023-04-16T06:51:34;99956.72;;;10.17;76.13
50310;BME280;36207;51.850;21.698;2023-04-16T06:53:59;99954.46;;;10.20;76.20
50310;BME280;36207;51.850;21.698;2023-04-16T06:56:25;99960.80;;;10.22;76.16
50310;BME280;36207;51.850;21.698;2023-04-16T06:58:51;99962.44;;;10.25;76.19
50310;BME280;36207;51.850;21.698;2023-04-16T07:01:17;99962.80;;;10.28;76.12
50310;BME280;36207;51.850;21.698;2023-04-16T07:03:43;99965.23;;;10.30;76.14
50310;BME280;36207;51.850;21.698;2023-04-16T07:06:09;99968.86;;;10.31;76.09
50310;BME280;36207;51.850;21.698;2023-04-16T07:08:35;99964.38;;;10.33;76.09
50310;BME280;36207;51.850;21.698;2023-04-16T07:11:01;99966.31;;;10.39;76.25
50310;BME280;36207;51.850;21.698;2023-04-16T07:13:27;99968.25;;;10.44;76.04
50310;BME280;36207;51.850;21.698;2023-04-16T07:15:53;99972.88;;;10.47;75.88
50310;BME280;36207;51.850;21.698;2023-04-16T07:18:19;99977.27;;;10.49;75.77
50310;BME280;36207;51.850;21.698;2023-04-16T07:20:46;99980.09;;;10.51;75.92
50310;BME280;36207;51.850;21.698;2023-04-16T07:23:12;99983.74;;;10.53;75.83
50310;BME280;36207;51.850;21.698;2023-04-16T07:25:38;99981.48;;;10.57;75.88
50310;BME280;36207;51.850;21.698;2023-04-16T07:28:04;99981.27;;;10.63;76.01
50310;BME280;36207;51.850;21.698;2023-04-16T07:30:30;99983.64;;;10.69;75.87
50310;BME280;36207;51.850;21.698;2023-04-16T07:33:02;99987.41;;;10.71;75.66
50310;BME280;36207;51.850;21.698;2023-04-16T07:35:29;99989.52;;;10.67;75.26
50310;BME280;36207;51.850;21.698;2023-04-16T07:37:55;99990.27;;;10.65;75.66
50310;BME280;36207;51.850;21.698;2023-04-16T07:40:22;99984.23;;;10.68;75.58
50310;BME280;36207;51.850;21.698;2023-04-16T07:42:48;99992.63;;;10.68;74.61
50310;BME280;36207;51.850;21.698;2023-04-16T07:45:14;99993.14;;;10.67;75.29
50310;BME280;36207;51.850;21.698;2023-04-16T07:47:39;99996.88;;;10.73;75.52
50310;BME280;36207;51.850;21.698;2023-04-16T07:50:09;99995.48;;;10.78;75.48
50310;BME280;36207;51.850;21.698;2023-04-16T07:52:35;99995.78;;;10.84;75.77
50310;BME280;36207;51.850;21.698;2023-04-16T07:55:02;100005.14;;;10.91;75.49
50310;BME280;36207;51.850;21.698;2023-04-16T07:57:28;100004.21;;;10.94;74.62
50310;BME280;36207;51.850;21.698;2023-04-16T07:59:54;100006.65;;;10.96;74.65
50310;BME280;36207;51.850;21.698;2023-04-16T08:02:19;100006.92;;;11.00;74.77
50310;BME280;36207;51.850;21.698;2023-04-16T08:04:45;100003.24;;;11.06;75.31
50310;BME280;36207;51.850;21.698;2023-04-16T08:07:11;100005.14;;;11.24;75.63
50310;BME280;36207;51.850;21.698;2023-04-16T08:09:46;100008.11;;;11.36;74.90
50310;BME280;36207;51.850;21.698;2023-04-16T08:12:13;100001.48;;;11.41;74.66
50310;BME280;36207;51.850;21.698;2023-04-16T08:14:39;100005.75;;;11.50;74.85
50310;BME280;36207;51.850;21.698;2023-04-16T08:17:06;100003.16;;;11.65;75.38
50310;BME280;36207;51.850;21.698;2023-04-16T08:19:31;100003.55;;;11.81;75.10
50310;BME280;36207;51.850;21.698;2023-04-16T08:21:58;100007.16;;;11.91;74.74
50310;BME280;36207;51.850;21.698;2023-04-16T08:24:24;100008.75;;;12.00;74.71
50310;BME280;36207;51.850;21.698;2023-04-16T08:26:50;100012.04;;;12.03;74.08
50310;BME280;36207;51.850;21.698;2023-04-16T08:29:16;100020.63;;;12.08;73.08
50310;BME280;36207;51.850;21.698;2023-04-16T08:31:42;100023.15;;;12.02;72.30
50310;BME280;36207;51.850;21.698;2023-04-16T08:34:09;100022.24;;;11.95;72.45
50310;BME280;36207;51.850;21.698;2023-04-16T08:36:36;100017.95;;;11.90;73.33
50310;BME280;36207;51.850;21.698;2023-04-16T08:39:02;100018.84;;;11.98;73.27
50310;BME280;36207;51.850;21.698;2023-04-16T08:41:31;100021.48;;;12.04;73.82
50310;BME280;36207;51.850;21.698;2023-04-16T08:43:59;100025.02;;;12.11;73.49
50310;BME280;36207;51.850;21.698;2023-04-16T08:46:28;100022.48;;;12.20;72.87
50310;BME280;36207;51.850;21.698;2023-04-16T08:48:55;100022.13;;;12.35;73.54
50310;BME280;36207;51.850;21.698;2023-04-16T08:51:23;100026.73;;;12.48;73.42
50310;BME280;36207;51.850;21.698;2023-04-16T08:53:52;100028.40;;;12.60;72.80
50310;BME280;36207;51.850;21.698;2023-04-16T08:56:22;100031.21;;;12.75;71.26
50310;BME280;36207;51.850;21.698;2023-04-16T08:58:49;100031.55;;;12.85;72.42
50310;BME280;36207;51.850;21.698;2023-04-16T09:01:17;100026.79;;;12.93;72.59
50310;BME280;36207;51.850;21.698;2023-04-16T09:03:46;100029.35;;;13.10;72.81
50310;BME280;36207;51.850;21.698;2023-04-16T09:06:18;100029.81;;;13.26;71.07
50310;BME280;36207;51.850;21.698;2023-04-16T09:08:44;100033.11;;;13.36;71.33
50310;BME280;36207;51.850;21.698;2023-04-16T09:11:12;100033.58;;;13.54;71.46
50310;BME280;36207;51.850;21.698;2023-04-16T09:13:38;100039.40;;;13.71;71.84
50310;BME280;36207;51.850;21.698;2023-04-16T09:16:06;100042.66;;;13.77;71.51
50310;BME280;36207;51.850;21.698;2023-04-16T09:18:33;100043.11;;;13.78;70.27
50310;BME280;36207;51.850;21.698;2023-04-16T09:21:02;100039.31;;;13.75;70.81
50310;BME280;36207;51.850;21.698;2023-04-16T09:23:31;100041.56;;;13.75;69.67
50310;BME280;36207;51.850;21.698;2023-04-16T09:25:58;100045.36;;;13.66;69.92
50310;BME280;36207;51.850;21.698;2023-04-16T09:28:43;100048.69;;;13.61;69.82
50310;BME280;36207;51.850;21.698;2023-04-16T09:31:12;100042.23;;;13.69;71.16
50310;BME280;36207;51.850;21.698;2023-04-16T09:33:39;100046.63;;;13.88;71.21
50310;BME280;36207;51.850;21.698;2023-04-16T09:36:05;100044.54;;;14.01;70.53
50310;BME280;36207;51.850;21.698;2023-04-16T09:38:46;100041.94;;;14.13;70.83
50310;BME280;36207;51.850;21.698;2023-04-16T09:41:13;100043.60;;;14.29;70.81
50310;BME280;36207;51.850;21.698;2023-04-16T09:43:48;100047.85;;;14.45;71.25
50310;BME280;36207;51.850;21.698;2023-04-16T09:46:14;100045.05;;;14.65;71.45
50310;BME280;36207;51.850;21.698;2023-04-16T09:48:40;100051.19;;;14.76;69.74
50310;BME280;36207;51.850;21.698;2023-04-16T09:51:10;100050.35;;;14.71;69.46
50310;BME280;36207;51.850;21.698;2023-04-16T09:53:36;100049.86;;;14.72;69.89
50310;BME280;36207;51.850;21.698;2023-04-16T09:56:04;100050.40;;;14.72;69.74
50310;BME280;36207;51.850;21.698;2023-04-16T09:58:36;100045.15;;;14.70;68.94
50310;BME280;36207;51.850;21.698;2023-04-16T10:01:11;100051.84;;;14.67;69.46
50310;BME280;36207;51.850;21.698;2023-04-16T10:03:39;100052.33;;;14.65;68.81
50310;BME280;36207;51.850;21.698;2023-04-16T10:08:31;100058.52;;;14.49;68.85
50310;BME280;36207;51.850;21.698;2023-04-16T10:10:57;100057.27;;;14.45;69.21
50310;BME280;36207;51.850;21.698;2023-04-16T10:13:24;100058.71;;;14.45;68.98
50310;BME280;36207;51.850;21.698;2023-04-16T10:15:54;100062.84;;;14.42;68.28
50310;BME280;36207;51.850;21.698;2023-04-16T10:18:22;100065.80;;;14.36;68.37
50310;BME280;36207;51.850;21.698;2023-04-16T10:20:51;100066.17;;;14.37;68.82
50310;BME280;36207;51.850;21.698;2023-04-16T10:23:19;100067.01;;;14.39;68.62
50310;BME280;36207;51.850;21.698;2023-04-16T10:25:47;100069.31;;;14.34;67.05
50310;BME280;36207;51.850;21.698;2023-04-16T10:28:14;100069.63;;;14.24;65.54
50310;BME280;36207;51.850;21.698;2023-04-16T10:30:42;100069.46;;;14.30;67.53
50310;BME280;36207;51.850;21.698;2023-04-16T10:33:38;100065.96;;;14.47;67.91
50310;BME280;36207;51.850;21.698;2023-04-16T10:36:13;100066.25;;;14.56;67.59
50310;BME280;36207;51.850;21.698;2023-04-16T10:38:44;100065.42;;;14.55;67.19
50310;BME280;36207;51.850;21.698;2023-04-16T10:41:10;100061.04;;;14.56;67.60
50310;BME280;36207;51.850;21.698;2023-04-16T10:43:42;100056.43;;;14.66;67.34
50310;BME280;36207;51.850;21.698;2023-04-16T10:46:29;100056.61;;;14.82;67.58
50310;BME280;36207;51.850;21.698;2023-04-16T10:48:59;100056.53;;;14.94;67.55
50310;BME280;36207;51.850;21.698;2023-04-16T10:51:31;100060.38;;;15.06;66.51
50310;BME280;36207;51.850;21.698;2023-04-16T10:56:34;100061.79;;;15.00;65.93
50310;BME280;36207;51.850;21.698;2023-04-16T10:59:03;100063.73;;;14.89;64.73
50310;BME280;36207;51.850;21.698;2023-04-16T11:01:35;100065.91;;;14.78;64.48
50310;BME280;36207;51.850;21.698;2023-04-16T11:04:25;100069.96;;;14.71;65.29
50310;BME280;36207;51.850;21.698;2023-04-16T11:12:40;100064.46;;;14.77;66.60
50310;BME280;36207;51.850;21.698;2023-04-16T11:15:11;100067.57;;;14.80;66.69
50310;BME280;36207;51.850;21.698;2023-04-16T11:17:48;100069.94;;;14.81;66.59
50310;BME280;36207;51.850;21.698;2023-04-16T11:22:42;100066.54;;;14.79;65.68
50310;BME280;36207;51.850;21.698;2023-04-16T11:25:10;100063.06;;;14.84;66.38
50310;BME280;36207;51.850;21.698;2023-04-16T11:27:37;100066.45;;;14.89;65.98
50310;BME280;36207;51.850;21.698;2023-04-16T11:30:05;100063.11;;;14.91;65.89
50310;BME280;36207;51.850;21.698;2023-04-16T11:32:33;100066.13;;;14.99;66.53
50310;BME280;36207;51.850;21.698;2023-04-16T11:35:00;100068.29;;;15.07;65.17
50310;BME280;36207;51.850;21.698;2023-04-16T11:37:36;100069.60;;;15.13;65.45
50310;BME280;36207;51.850;21.698;2023-04-16T11:40:04;100066.17;;;15.22;66.16
50310;BME280;36207;51.850;21.698;2023-04-16T11:42:33;100067.73;;;15.36;66.57
50310;BME280;36207;51.850;21.698;2023-04-16T11:45:02;100068.20;;;15.45;65.90
50310;BME280;36207;51.850;21.698;2023-04-16T11:47:30;100069.77;;;15.45;65.73
50310;BME280;36207;51.850;21.698;2023-04-16T11:49:57;100068.91;;;15.42;65.30
50310;BME280;36207;51.850;21.698;2023-04-16T11:52:31;100066.27;;;15.39;65.49
50310;BME280;36207;51.850;21.698;2023-04-16T11:54:58;100065.64;;;15.44;65.86
50310;BME280;36207;51.850;21.698;2023-04-16T11:57:27;100066.52;;;15.57;65.56
50310;BME280;36207;51.850;21.698;2023-04-16T11:59:55;100067.23;;;15.60;63.27
50310;BME280;36207;51.850;21.698;2023-04-16T12:02:40;100063.92;;;15.52;63.45
50310;BME280;36207;51.850;21.698;2023-04-16T12:05:25;100063.73;;;15.48;63.18
50310;BME280;36207;51.850;21.698;2023-04-16T12:07:58;100065.67;;;15.50;62.74
50310;BME280;36207;51.850;21.698;2023-04-16T12:10:24;100064.02;;;15.53;63.44
50310;BME280;36207;51.850;21.698;2023-04-16T12:12:50;100059.74;;;15.54;64.43
50310;BME280;36207;51.850;21.698;2023-04-16T12:15:16;100063.84;;;15.56;63.60
50310;BME280;36207;51.850;21.698;2023-04-16T12:17:42;100057.39;;;15.48;63.12
50310;BME280;36207;51.850;21.698;2023-04-16T12:20:16;100058.48;;;15.41;63.77
50310;BME280;36207;51.850;21.698;2023-04-16T12:22:48;100054.21;;;15.41;63.94
50310;BME280;36207;51.850;21.698;2023-04-16T12:25:15;100053.77;;;15.42;63.66
50310;BME280;36207;51.850;21.698;2023-04-16T12:30:12;100055.03;;;15.30;62.37
50310;BME280;36207;51.850;21.698;2023-04-16T12:32:40;100053.13;;;15.27;62.85
50310;BME280;36207;51.850;21.698;2023-04-16T12:35:06;100049.69;;;15.31;63.66
50310;BME280;36207;51.850;21.698;2023-04-16T12:37:33;100051.05;;;15.35;63.59
50310;BME280;36207;51.850;21.698;2023-04-16T12:40:00;100052.23;;;15.37;63.33
50310;BME280;36207;51.850;21.698;2023-04-16T12:42:26;100052.03;;;15.36;63.00
50310;BME280;36207;51.850;21.698;2023-04-16T12:44:52;100052.91;;;15.32;63.06
50310;BME280;36207;51.850;21.698;2023-04-16T12:47:18;100048.31;;;15.30;63.26
50310;BME280;36207;51.850;21.698;2023-04-16T12:49:44;100048.89;;;15.31;63.18
50310;BME280;36207;51.850;21.698;2023-04-16T12:52:10;100049.52;;;15.31;62.64
50310;BME280;36207;51.850;21.698;2023-04-16T12:54:36;100048.98;;;15.31;63.27
50310;BME280;36207;51.850;21.698;2023-04-16T12:57:02;100046.57;;;15.34;63.36
50310;BME280;36207;51.850;21.698;2023-04-16T12:59:28;100045.98;;;15.39;63.38
50310;BME280;36207;51.850;21.698;2023-04-16T13:01:54;100053.02;;;15.44;63.46
50310;BME280;36207;51.850;21.698;2023-04-16T13:04:20;100053.04;;;15.47;63.34
50310;BME280;36207;51.850;21.698;2023-04-16T13:06:46;100052.34;;;15.48;63.39